Time;durP1;ratioP1;P1;durP2;ratioP2;P2;SDS_P1;SDS_P2;PMS_P1;PMS_P2;Temp;Humidity;BMP_temperature;BMP_pressure;BME280_temperature;BME280_humidity;BME280_pressure;Samples;Min_cycle;Max_cycle;Signal;HPM_P1;HPM_P2
2022/12/10 00:01:49;;;;;;;210.28;23.18;;;;;;;7.82;100.00;100966.05;1648534;85;21035;-92
2022/12/10 00:04:16;;;;;;;184.07;21.17;;;;;;;7.60;100.00;100964.46;1654354;85;21094;-91
2022/12/10 00:06:43;;;;;;;160.07;21.27;;;;;;;7.61;100.00;100968.23;1665963;84;21789;-91
2022/12/10 00:09:14;;;;;;;187.40;22.52;;;;;;;7.57;100.00;100960.37;1674369;84;21089;-92
2022/12/10 00:11:41;;;;;;;305.73;26.07;;;;;;;7.60;100.00;100971.16;1711131;81;21518;-92
2022/12/10 00:14:08;;;;;;;228.70;23.55;;;;;;;7.63;100.00;100974.72;1716267;81;21133;-91
2022/12/10 00:16:35;;;;;;;206.97;23.38;;;;;;;7.68;100.00;100970.30;1713510;82;21071;-91
2022/12/10 00:19:01;;;;;;;231.32;23.07;;;;;;;7.64;100.00;100969.11;1727908;81;21981;-91
2022/12/10 00:21:31;;;;;;;212.17;22.82;;;;;;;7.68;100.00;100966.81;1711304;81;20915;-92
2022/12/10 00:23:58;;;;;;;189.77;22.15;;;;;;;7.69;100.00;100969.77;1716189;81;21015;-91
2022/12/10 00:26:28;;;;;;;188.80;21.05;;;;;;;7.57;100.00;100975.13;1726679;81;21020;-91
2022/12/10 00:28:56;;;;;;;187.55;21.97;;;;;;;7.58;100.00;100972.72;1655847;84;21696;-91
2022/12/10 00:31:28;;;;;;;198.60;22.13;;;;;;;7.57;100.00;100966.27;1655731;84;21846;-91
2022/12/10 00:37:35;;;;;;;162.92;18.57;;;;;;;7.57;100.00;100972.97;1654013;84;21044;-91
2022/12/10 00:40:01;;;;;;;236.95;21.80;;;;;;;7.52;100.00;100965.59;1657302;86;21605;-91
2022/12/10 00:42:27;;;;;;;183.27;22.77;;;;;;;7.53;100.00;100970.43;1651468;86;20999;-91
2022/12/10 00:44:53;;;;;;;160.40;19.48;;;;;;;7.45;100.00;100970.26;1656768;86;21701;-92
2022/12/10 00:47:19;;;;;;;242.13;21.62;;;;;;;7.46;100.00;100971.36;1658019;85;20936;-91
2022/12/10 00:49:44;;;;;;;145.72;20.80;;;;;;;7.36;100.00;100970.30;1653968;84;21030;-91
2022/12/10 00:52:10;;;;;;;189.67;20.77;;;;;;;7.42;100.00;100973.41;1660275;85;21614;-91
2022/12/10 00:54:37;;;;;;;251.05;21.73;;;;;;;7.45;100.00;100971.60;1654395;86;20932;-91
2022/12/10 00:57:03;;;;;;;254.72;24.15;;;;;;;7.43;100.00;100969.66;1658600;84;21829;-92
2022/12/10 00:59:29;;;;;;;274.18;23.62;;;;;;;7.45;100.00;100970.26;1657405;86;21571;-91
2022/12/10 01:01:55;;;;;;;302.57;26.60;;;;;;;7.40;100.00;100966.10;1657213;85;20996;-91
2022/12/10 01:04:21;;;;;;;273.10;22.58;;;;;;;7.38;100.00;100970.87;1658457;85;20987;-91
2022/12/10 01:06:50;;;;;;;344.62;25.20;;;;;;;7.36;100.00;100959.58;1657618;85;21733;-91
2022/12/10 01:09:21;;;;;;;274.00;22.52;;;;;;;7.38;100.00;100962.82;1676571;85;21801;-92
2022/12/10 01:11:49;;;;;;;186.03;20.10;;;;;;;7.42;100.00;100964.83;1680492;84;21420;-91
2022/12/10 01:14:21;;;;;;;307.80;23.45;;;;;;;7.45;100.00;100965.71;1684540;84;21037;-91
2022/12/10 01:16:48;;;;;;;207.27;21.85;;;;;;;7.40;100.00;100962.08;1684594;84;21435;-91
2022/12/10 01:19:14;;;;;;;269.98;22.67;;;;;;;7.41;100.00;100966.38;1683596;84;21087;-91
2022/12/10 01:21:40;;;;;;;267.15;22.55;;;;;;;7.39;100.00;100965.81;1686167;84;21870;-91
2022/12/10 01:24:07;;;;;;;291.55;22.77;;;;;;;7.41;100.00;100967.23;1684280;84;21216;-91
2022/12/10 01:26:35;;;;;;;261.95;23.18;;;;;;;7.46;100.00;100966.52;1763420;79;21002;-91
2022/12/10 01:29:03;;;;;;;215.55;21.68;;;;;;;7.36;100.00;100959.58;1771464;80;21081;-92
2022/12/10 01:31:34;;;;;;;345.00;23.45;;;;;;;7.36;100.00;100956.36;1758970;80;21035;-92
2022/12/10 01:34:03;;;;;;;293.52;23.45;;;;;;;7.31;100.00;100962.93;1756954;80;21795;-92
2022/12/10 01:36:34;;;;;;;255.35;21.87;;;;;;;7.25;100.00;100956.61;1767086;79;21138;-92
2022/12/10 01:39:02;;;;;;;156.22;20.02;;;;;;;7.21;100.00;100954.11;1714730;82;21083;-91
2022/12/10 01:41:36;;;;;;;242.15;22.15;;;;;;;7.19;100.00;100956.72;1712976;83;21051;-91
2022/12/10 01:44:13;;;;;;;170.45;22.13;;;;;;;7.15;100.00;100963.59;1701132;83;21134;-91
2022/12/10 01:46:46;;;;;;;187.57;20.48;;;;;;;7.13;100.00;100960.31;1710867;83;21882;-91
2022/12/10 01:49:17;;;;;;;197.47;21.65;;;;;;;7.14;100.00;100961.41;1698012;83;21141;-91
2022/12/10 01:51:47;;;;;;;121.55;18.42;;;;;;;7.23;100.00;100961.38;1659088;85;21016;-91
2022/12/10 01:54:18;;;;;;;142.28;19.10;;;;;;;7.08;100.00;100966.88;1613360;87;21052;-91
2022/12/10 01:56:49;;;;;;;183.78;20.35;;;;;;;7.18;100.00;100961.80;1623432;87;21124;-91
2022/12/10 01:59:15;;;;;;;216.33;20.10;;;;;;;7.22;100.00;100959.75;1634547;86;21596;-91
2022/12/10 02:01:59;;;;;;;233.78;20.40;;;;;;;7.19;100.00;100960.73;1635557;86;21064;-91
2022/12/10 02:05:01;;;;;;;;;;;;;;;7.20;100.00;100957.81;1631605;87;21055;-91
2022/12/10 02:07:35;;;;;;;171.57;19.75;;;;;;;7.23;100.00;100958.70;1629802;86;20185;-90
2022/12/10 02:10:25;;;;;;;171.35;20.05;;;;;;;7.35;100.00;100958.73;1656669;85;22041;-91
2022/12/10 02:13:26;;;;;;;287.85;22.45;;;;;;;7.37;100.00;100958.52;1658095;85;22557;-91
2022/12/10 02:16:01;;;;;;;170.82;21.70;;;;;;;7.28;100.00;100954.01;1592620;88;20948;-91
2022/12/10 02:18:32;;;;;;;179.30;21.70;;;;;;;7.31;100.00;100944.69;1599136;88;21078;-91
2022/12/10 02:21:03;;;;;;;215.60;23.67;;;;;;;7.39;100.00;100939.00;1437005;99;21137;-91
2022/12/10 02:23:37;;;;;;;227.97;21.62;;;;;;;7.40;100.00;100940.10;1423094;98;21078;-91
2022/12/10 02:26:26;;;;;;;273.43;23.87;;;;;;;7.40;100.00;100933.92;1405057;100;21787;-91
2022/12/10 02:29:19;;;;;;;197.22;20.12;;;;;;;7.41;100.00;100936.89;1409927;100;21111;-91
2022/12/10 02:31:50;;;;;;;312.77;24.18;;;;;;;7.41;100.00;100932.87;1414448;99;20989;-90
2022/12/10 02:34:19;;;;;;;163.47;20.27;;;;;;;7.39;100.00;100933.64;1330638;104;21117;-91
2022/12/10 02:36:48;;;;;;;214.97;19.65;;;;;;;7.39;100.00;100933.11;1351177;104;21101;-91
2022/12/10 02:39:23;;;;;;;172.90;20.37;;;;;;;7.35;100.00;100935.94;1349136;104;21962;-91
2022/12/10 02:41:53;;;;;;;169.80;20.32;;;;;;;7.35;100.00;100942.64;1345540;105;21241;-91
2022/12/10 02:44:22;;;;;;;123.65;17.55;;;;;;;7.31;100.00;100930.77;1354937;104;21111;-91
2022/12/10 02:46:52;;;;;;;116.88;19.17;;;;;;;7.25;100.00;100929.81;1349640;103;21216;-92
2022/12/10 02:49:19;;;;;;;131.75;19.55;;;;;;;7.28;100.00;100923.98;1352724;104;21067;-91
2022/12/10 02:51:45;;;;;;;187.85;21.05;;;;;;;7.34;100.00;100918.77;1358245;100;21948;-90
2022/12/10 02:54:37;;;;;;;142.60;20.15;;;;;;;7.40;100.00;100913.29;1446921;98;21088;-91
2022/12/10 02:57:11;;;;;;;146.02;18.90;;;;;;;7.46;100.00;100911.02;1444954;97;21009;-91
2022/12/10 03:00:18;;;;;;;107.65;19.30;;;;;;;7.50;100.00;100911.41;1380877;102;21057;-90
2022/12/10 03:03:01;;;;;;;120.65;18.95;;;;;;;7.34;100.00;100911.53;1370788;102;21114;-91
2022/12/10 03:06:07;;;;;;;97.10;19.32;;;;;;;7.26;100.00;100912.70;1359323;103;21827;-90
2022/12/10 03:08:44;;;;;;;186.60;19.50;;;;;;;7.27;100.00;100896.09;1362679;103;21192;-90
2022/12/10 03:11:17;;;;;;;97.30;19.75;;;;;;;7.28;100.00;100903.07;1369534;102;21238;-90
2022/12/10 03:14:13;;;;;;;100.62;19.30;;;;;;;7.28;100.00;100901.20;1345162;105;21092;-91
2022/12/10 03:16:53;;;;;;;89.85;20.25;;;;;;;7.33;100.00;100907.23;1312137;106;21194;-90
2022/12/10 03:19:27;;;;;;;93.07;19.87;;;;;;;7.32;100.00;100909.59;1407392;100;22050;-91
2022/12/10 03:21:56;;;;;;;102.85;20.37;;;;;;;7.35;100.00;100909.14;1397833;99;21163;-90
2022/12/10 03:24:24;;;;;;;101.35;20.45;;;;;;;7.42;100.00;100913.88;1436301;99;21721;-90
2022/12/10 03:26:52;;;;;;;122.60;21.87;;;;;;;7.44;100.00;100912.30;1436174;98;21519;-91
2022/12/10 03:29:26;;;;;;;126.90;21.10;;;;;;;7.50;100.00;100912.74;1439205;98;21623;-91
2022/12/10 03:31:55;;;;;;;109.27;22.15;;;;;;;7.54;100.00;100917.92;1480869;95;21831;-91
2022/12/10 03:34:22;;;;;;;150.87;22.65;;;;;;;7.53;100.00;100913.62;1492563;94;21006;-91
2022/12/10 03:36:49;;;;;;;121.35;22.87;;;;;;;7.51;100.00;100918.39;1489678;94;21081;-91
2022/12/10 03:39:17;;;;;;;117.42;23.02;;;;;;;7.50;100.00;100914.89;1534595;92;21465;-90
2022/12/10 03:41:43;;;;;;;107.72;23.77;;;;;;;7.54;100.00;100914.43;1537998;91;21323;-91
2022/12/10 03:44:09;;;;;;;86.75;22.93;;;;;;;7.50;100.00;100917.58;1541316;92;21670;-92
2022/12/10 03:46:35;;;;;;;97.65;24.00;;;;;;;7.50;100.00;100908.72;1538446;92;20977;-91
2022/12/10 03:49:02;;;;;;;102.75;24.32;;;;;;;7.43;100.00;100907.99;1537945;91;21053;-91
2022/12/10 03:51:28;;;;;;;86.12;24.18;;;;;;;7.36;100.00;100903.27;1535137;92;21155;-91
2022/12/10 03:53:54;;;;;;;95.75;23.20;;;;;;;7.35;100.00;100899.75;1573613;86;21107;-91
2022/12/10 03:56:22;;;;;;;83.58;24.02;;;;;;;7.37;100.00;100898.20;1655411;84;21431;-91
2022/12/10 03:58:48;;;;;;;76.95;22.60;;;;;;;7.39;100.00;100898.79;1659352;84;21062;-90
2022/12/10 04:01:15;;;;;;;75.25;23.95;;;;;;;7.43;100.00;100898.08;1653904;85;21039;-91
2022/12/10 04:03:43;;;;;;;63.98;21.52;;;;;;;7.43;100.00;100897.27;1661682;84;21179;-91
2022/12/10 04:06:14;;;;;;;72.15;21.17;;;;;;;7.54;100.00;100885.74;1680874;85;21044;-91
2022/12/10 04:08:41;;;;;;;68.45;22.58;;;;;;;7.48;100.00;100889.35;1648920;84;21389;-92
2022/12/10 04:11:10;;;;;;;66.62;22.48;;;;;;;7.46;100.00;100887.42;1723037;81;21043;-91
2022/12/10 04:16:28;;;;;;;62.75;19.75;;;;;;;7.45;100.00;100885.27;1756604;80;21043;-90
2022/12/10 04:19:01;;;;;;;63.48;21.33;;;;;;;7.35;100.00;100885.01;1773392;80;21074;-91
2022/12/10 04:27:05;;;;;;;58.25;20.12;;;;;;;7.22;100.00;100898.11;1769948;80;20992;-91
2022/12/10 04:33:11;;;;;;;53.20;19.07;;;;;;;7.17;100.00;100912.71;1767160;80;21024;-91
2022/12/10 04:35:37;;;;;;;55.98;18.35;;;;;;;7.24;100.00;100905.41;1782686;80;22592;-90
2022/12/10 04:41:47;;;;;;;57.67;17.65;;;;;;;7.34;100.00;100918.77;1771327;80;21500;-90
2022/12/10 04:44:13;;;;;;;49.13;19.07;;;;;;;7.36;100.00;100918.02;1765171;80;21101;-90
2022/12/10 04:46:39;;;;;;;56.53;19.95;;;;;;;7.34;100.00;100915.55;1776613;80;20999;-91
2022/12/10 04:49:07;;;;;;;58.83;19.40;;;;;;;7.26;100.00;100918.56;1749305;80;21771;-90
2022/12/10 04:51:33;;;;;;;52.75;19.02;;;;;;;7.30;100.00;100921.63;1778082;80;21552;-91
2022/12/10 04:53:59;;;;;;;57.27;20.02;;;;;;;7.31;100.00;100928.61;1783348;80;20936;-92
2022/12/10 04:56:25;;;;;;;53.28;19.30;;;;;;;7.39;100.00;100931.77;1762828;79;21030;-92
2022/12/10 04:58:51;;;;;;;58.92;19.80;;;;;;;7.35;100.00;100929.77;1776352;80;21780;-91
2022/12/10 05:01:20;;;;;;;60.55;21.82;;;;;;;7.36;100.00;100927.41;1778562;80;21790;-91
2022/12/10 05:03:46;;;;;;;57.35;21.02;;;;;;;7.37;100.00;100926.34;1769521;80;20983;-90
2022/12/10 05:06:15;;;;;;;60.43;21.17;;;;;;;7.33;100.00;100916.61;1779909;80;21019;-90
2022/12/10 05:12:22;;;;;;;59.30;18.73;;;;;;;7.35;100.00;100914.50;1785333;80;21027;-90
2022/12/10 05:14:48;;;;;;;59.58;19.32;;;;;;;7.28;100.00;100913.27;1768733;79;22605;-89
2022/12/10 05:17:14;;;;;;;64.03;20.68;;;;;;;7.35;100.00;100911.81;1752007;80;21036;-90
2022/12/10 05:19:40;;;;;;;60.12;18.80;;;;;;;7.43;100.00;100921.40;1769749;80;20936;-90
2022/12/10 05:24:52;;;;;;;60.78;20.60;;;;;;;7.43;100.00;100920.06;1768521;80;21026;-89
2022/12/10 05:31:00;;;;;;;55.58;18.20;;;;;;;7.53;100.00;100928.37;1771338;80;21373;-90
2022/12/10 05:33:27;;;;;;;59.58;18.77;;;;;;;7.38;100.00;100927.97;1763746;80;21037;-90
2022/12/10 05:35:59;;;;;;;56.15;19.67;;;;;;;7.31;100.00;100924.59;1759810;80;21020;-90
2022/12/10 05:38:27;;;;;;;62.65;18.35;;;;;;;7.30;100.00;100922.44;1758195;80;21074;-90
2022/12/10 05:40:53;;;;;;;54.40;16.80;;;;;;;7.25;100.00;100924.98;1770452;80;21677;-90
2022/12/10 05:47:00;;;;;;;49.93;16.65;;;;;;;7.38;100.00;100938.69;1785966;80;20999;-91
2022/12/10 05:49:26;;;;;;;48.78;16.37;;;;;;;7.32;100.00;100943.11;1781957;79;20995;-90
2022/12/10 05:51:56;;;;;;;57.53;17.62;;;;;;;7.28;100.00;100944.09;1762945;80;20983;-90
2022/12/10 05:54:22;;;;;;;49.80;16.75;;;;;;;7.36;100.00;100949.66;1760086;80;21894;-90
2022/12/10 05:56:48;;;;;;;53.28;17.05;;;;;;;7.39;100.00;100944.37;1768585;79;20880;-90
2022/12/10 05:59:14;;;;;;;49.42;16.77;;;;;;;7.38;100.00;100940.88;1758018;80;21032;-90
2022/12/10 06:01:40;;;;;;;51.33;16.35;;;;;;;7.43;100.00;100934.80;1736623;80;20992;-90
2022/12/10 06:04:06;;;;;;;50.30;16.20;;;;;;;7.58;100.00;100937.05;1759027;80;21724;-89
2022/12/10 06:06:36;;;;;;;47.98;16.12;;;;;;;7.56;100.00;100939.97;1764718;80;21972;-90
2022/12/10 06:09:04;;;;;;;53.65;16.70;;;;;;;7.48;100.00;100947.01;1728380;81;20914;-89
2022/12/10 06:11:30;;;;;;;49.80;16.75;;;;;;;7.44;100.00;100945.31;1743931;81;21505;-90
2022/12/10 06:13:57;;;;;;;46.80;16.80;;;;;;;7.51;100.00;100937.97;1743533;81;21077;-89
2022/12/10 06:16:26;;;;;;;46.90;15.63;;;;;;;7.56;100.00;100940.47;1691931;82;21056;-88
2022/12/10 06:18:52;;;;;;;45.40;14.43;;;;;;;7.59;100.00;100942.19;1695735;81;21866;-89
2022/12/10 06:21:34;;;;;;;40.67;14.93;;;;;;;7.51;100.00;100939.31;1731093;81;21534;-89
2022/12/10 06:24:02;;;;;;;40.60;14.25;;;;;;;7.53;100.00;100929.70;1716112;81;21564;-88
2022/12/10 06:26:28;;;;;;;44.90;15.95;;;;;;;7.56;100.00;100922.54;1684601;83;21035;-88
2022/12/10 06:32:34;;;;;;;41.75;14.80;;;;;;;7.61;100.00;100933.90;1677788;84;21114;-89
2022/12/10 06:35:00;;;;;;;51.30;16.23;;;;;;;7.64;100.00;100923.52;1654949;85;20913;-90
2022/12/10 06:37:26;;;;;;;42.13;14.70;;;;;;;7.69;100.00;100937.59;1673898;84;21029;-89
2022/12/10 06:39:53;;;;;;;46.00;14.80;;;;;;;7.65;100.00;100933.75;1665275;84;21092;-88
2022/12/10 06:42:20;;;;;;;53.38;15.93;;;;;;;7.81;100.00;100934.91;1660740;83;21085;-89
2022/12/10 06:44:46;;;;;;;50.05;15.20;;;;;;;7.81;100.00;100933.57;1673198;85;21547;-90
2022/12/10 06:47:13;;;;;;;47.93;15.55;;;;;;;7.82;100.00;100924.46;1658778;84;21046;-89
2022/12/10 06:49:40;;;;;;;43.13;14.38;;;;;;;7.91;100.00;100925.24;1672737;85;20979;-91
2022/12/10 06:52:07;;;;;;;51.02;16.32;;;;;;;7.94;100.00;100918.06;1667257;85;21074;-91
2022/12/10 06:54:33;;;;;;;42.93;13.78;;;;;;;7.96;100.00;100925.86;1668426;83;21524;-91
2022/12/10 06:56:59;;;;;;;47.15;14.25;;;;;;;8.02;100.00;100928.14;1660920;82;21635;-91
2022/12/10 06:59:25;;;;;;;47.95;13.93;;;;;;;8.13;100.00;100926.78;1728460;81;20910;-91
2022/12/10 07:01:51;;;;;;;46.37;14.10;;;;;;;8.12;100.00;100931.06;1725488;81;21482;-91
2022/12/10 07:04:17;;;;;;;50.12;15.00;;;;;;;8.16;100.00;100924.97;1719997;81;21196;-91
2022/12/10 07:06:43;;;;;;;50.35;15.70;;;;;;;8.16;100.00;100923.62;1767063;80;21555;-91
2022/12/10 07:09:10;;;;;;;51.37;16.15;;;;;;;8.19;100.00;100919.66;1737244;80;22756;-92
2022/12/10 07:11:36;;;;;;;46.10;14.93;;;;;;;8.15;100.00;100923.88;1779311;80;20995;-91
2022/12/10 07:14:02;;;;;;;61.45;15.98;;;;;;;8.10;100.00;100910.34;1773941;80;21081;-91
2022/12/10 07:16:31;;;;;;;52.30;15.45;;;;;;;7.99;100.00;100902.58;1771897;80;21482;-91
2022/12/10 07:19:00;;;;;;;53.48;14.40;;;;;;;7.95;100.00;100900.09;1779111;79;21439;-90
2022/12/10 07:21:31;;;;;;;59.27;14.63;;;;;;;7.84;100.00;100911.11;1764881;80;21702;-90
2022/12/10 07:24:01;;;;;;;78.83;17.25;;;;;;;7.89;100.00;100908.55;1744636;81;20983;-90
2022/12/10 07:26:35;;;;;;;65.40;16.30;;;;;;;7.87;100.00;100897.75;1737167;81;21000;-91
2022/12/10 07:29:03;;;;;;;72.72;17.12;;;;;;;7.83;100.00;100896.07;1742702;81;21122;-91
2022/12/10 07:31:28;;;;;;;61.73;15.68;;;;;;;7.88;100.00;100904.24;1741933;81;21158;-92
2022/12/10 07:33:57;;;;;;;79.37;18.62;;;;;;;8.00;100.00;100908.77;1740379;81;21819;-91
2022/12/10 07:36:25;;;;;;;86.72;22.70;;;;;;;8.07;100.00;100909.47;1734047;82;22071;-91
2022/12/10 07:38:54;;;;;;;70.95;17.20;;;;;;;8.12;100.00;100898.32;1741187;81;20999;-91
2022/12/10 07:41:21;;;;;;;78.35;17.20;;;;;;;8.16;100.00;100894.10;1710631;82;21027;-91
2022/12/10 07:47:28;;;;;;;70.15;17.80;;;;;;;8.26;100.00;100894.83;1715058;82;21614;-91
2022/12/10 07:49:54;;;;;;;81.92;20.35;;;;;;;8.32;100.00;100891.20;1717682;82;20867;-91
2022/12/10 07:52:20;;;;;;;68.12;16.12;;;;;;;8.40;100.00;100884.68;1714998;82;21073;-90
2022/12/10 07:54:46;;;;;;;76.22;17.37;;;;;;;8.46;100.00;100881.57;1716784;82;21052;-90
2022/12/10 07:57:13;;;;;;;69.07;18.62;;;;;;;8.49;100.00;100875.19;1715984;82;20876;-91
2022/12/10 07:59:40;;;;;;;73.60;16.52;;;;;;;8.52;100.00;100873.90;1716456;81;21832;-92
2022/12/10 08:02:06;;;;;;;74.87;16.75;;;;;;;8.53;100.00;100871.49;1717864;81;21132;-91
2022/12/10 08:04:32;;;;;;;85.57;17.52;;;;;;;8.50;100.00;100876.84;1702904;82;20924;-91
2022/12/10 08:06:58;;;;;;;70.42;16.40;;;;;;;8.53;100.00;100873.67;1705028;83;21007;-90
2022/12/10 08:09:24;;;;;;;78.65;16.77;;;;;;;8.50;100.00;100871.47;1707605;82;20921;-92
2022/12/10 08:11:50;;;;;;;64.22;16.27;;;;;;;8.50;100.00;100865.26;1705837;82;22826;-90
2022/12/10 08:14:16;;;;;;;65.52;17.67;;;;;;;8.51;100.00;100863.69;1710620;81;21725;-91
2022/12/10 08:16:42;;;;;;;72.62;18.92;;;;;;;8.50;100.00;100851.83;1710311;82;21810;-91
2022/12/10 08:19:09;;;;;;;70.67;17.25;;;;;;;8.49;100.00;100849.67;1703760;83;20976;-92
2022/12/10 08:28:57;;;;;;;81.90;19.75;;;;;;;8.45;100.00;100838.33;1691005;83;21576;-90
2022/12/10 08:31:26;;;;;;;100.38;27.07;;;;;;;8.50;100.00;100822.28;1705107;83;20988;-90
2022/12/10 08:33:52;;;;;;;92.37;24.15;;;;;;;8.59;100.00;100823.02;1702117;83;21591;-91
2022/12/10 08:36:19;;;;;;;75.32;21.33;;;;;;;8.73;100.00;100818.67;1707113;83;21043;-91
2022/12/10 08:38:46;;;;;;;65.42;19.67;;;;;;;8.78;100.00;100804.80;1726198;82;21811;-91
2022/12/10 08:41:16;;;;;;;53.10;16.15;;;;;;;8.82;100.00;100796.56;1741812;81;21014;-91
2022/12/10 08:47:25;;;;;;;56.85;17.55;;;;;;;8.92;100.00;100785.69;1634739;85;21028;-90
2022/12/10 08:49:51;;;;;;;81.60;23.67;;;;;;;9.03;100.00;100777.55;1629653;86;21055;-91
2022/12/10 08:55:51;;;;;;;50.63;16.32;;;;;;;9.15;100.00;100765.87;1631887;86;21085;-91
2022/12/10 08:58:17;;;;;;;54.10;14.93;;;;;;;9.18;100.00;100755.99;1632000;86;21506;-92
2022/12/10 09:00:43;;;;;;;45.40;14.03;;;;;;;9.24;100.00;100757.16;1646171;86;20912;-92
2022/12/10 09:03:09;;;;;;;39.55;13.98;;;;;;;9.23;100.00;100753.36;1629880;86;20928;-92
2022/12/10 09:05:37;;;;;;;41.42;14.10;;;;;;;9.14;100.00;100748.92;1625727;86;22420;-92
2022/12/10 09:08:03;;;;;;;37.88;14.18;;;;;;;9.09;100.00;100743.50;1629088;85;21256;-93
2022/12/10 09:10:29;;;;;;;41.77;14.45;;;;;;;9.05;100.00;100746.38;1625337;86;21089;-92
2022/12/10 09:12:55;;;;;;;37.85;14.18;;;;;;;9.01;100.00;100736.65;1639146;86;21117;-91
2022/12/10 09:15:21;;;;;;;32.48;12.50;;;;;;;9.00;100.00;100739.56;1643205;86;21157;-92
2022/12/10 09:17:47;;;;;;;38.13;13.05;;;;;;;9.03;100.00;100747.14;1644449;87;21853;-92
2022/12/10 09:20:14;;;;;;;45.50;14.00;;;;;;;9.03;100.00;100741.26;1640645;86;20995;-94
2022/12/10 09:22:40;;;;;;;33.80;13.08;;;;;;;9.12;100.00;100738.13;1633411;86;21025;-92
2022/12/10 09:25:09;;;;;;;37.55;12.63;;;;;;;9.11;100.00;100729.26;1637419;86;21525;-91
2022/12/10 09:27:36;;;;;;;32.88;12.93;;;;;;;9.07;100.00;100713.34;1624622;86;21034;-92
2022/12/10 09:30:04;;;;;;;40.33;13.53;;;;;;;9.06;100.00;100715.77;1623275;85;21704;-92
2022/12/10 09:32:31;;;;;;;40.28;12.75;;;;;;;9.00;100.00;100712.69;1625312;86;21039;-92
2022/12/10 09:34:57;;;;;;;42.75;13.58;;;;;;;8.92;100.00;100705.88;1626400;86;21585;-92
2022/12/10 09:37:23;;;;;;;38.63;12.82;;;;;;;8.95;100.00;100692.48;1633877;86;21523;-92
2022/12/10 09:39:49;;;;;;;38.85;13.15;;;;;;;8.98;100.00;100693.33;1661747;82;21769;-92
2022/12/10 09:42:32;;;;;;;42.70;14.15;;;;;;;8.96;100.00;100690.87;1736619;82;21786;-92
2022/12/10 09:45:36;;;;;;;50.03;14.80;;;;;;;8.97;100.00;100690.34;1729858;81;21008;-92
2022/12/10 09:48:13;;;;;;;40.50;13.32;;;;;;;9.04;100.00;100676.21;1725901;81;21030;-92
2022/12/10 09:50:59;;;;;;;40.60;12.85;;;;;;;9.13;100.00;100679.29;1658788;85;21002;-91
2022/12/10 09:53:28;;;;;;;43.87;14.07;;;;;;;9.25;100.00;100682.67;1671153;85;20995;-91
2022/12/10 09:55:55;;;;;;;43.08;13.62;;;;;;;9.33;100.00;100672.84;1666191;85;21867;-92
2022/12/10 09:58:25;;;;;;;58.08;14.28;;;;;;;9.32;100.00;100660.44;1660200;85;21133;-91
2022/12/10 10:01:01;;;;;;;51.13;13.53;;;;;;;9.38;100.00;100648.67;1671868;85;21134;-91
2022/12/10 10:03:31;;;;;;;43.13;14.00;;;;;;;9.36;100.00;100640.06;1658528;85;21058;-92
2022/12/10 10:05:57;;;;;;;45.30;12.82;;;;;;;9.40;100.00;100639.03;1657895;85;20983;-91
2022/12/10 10:11:08;;;;;;;54.25;13.65;;;;;;;9.47;100.00;100622.98;1612620;87;21093;-91
2022/12/10 10:13:51;;;;;;;55.33;14.85;;;;;;;9.39;100.00;100623.42;1611030;88;21025;-91
2022/12/10 10:19:57;;;;;;;48.55;15.15;;;;;;;9.30;100.00;100604.77;1614514;87;21033;-92
2022/12/10 10:22:23;;;;;;;52.08;14.73;;;;;;;9.23;100.00;100621.60;1608002;87;22610;-91
2022/12/10 10:24:49;;;;;;;51.75;15.72;;;;;;;9.25;100.00;100620.83;1610694;87;21022;-91
2022/12/10 14:11:41;;;;;;;66.95;22.35;;;;;;;13.65;100.00;100491.89;1815143;78;25975;-86
2022/12/10 14:14:13;;;;;;;204.63;66.72;;;;;;;12.55;100.00;100484.33;1759846;80;21048;-86
2022/12/10 14:16:41;;;;;;;310.38;99.58;;;;;;;12.56;100.00;100449.48;1774448;80;21337;-86
2022/12/10 14:19:12;;;;;;;239.02;77.27;;;;;;;12.59;100.00;100439.98;1752333;80;20941;-86
2022/12/10 14:21:41;;;;;;;250.75;84.65;;;;;;;13.00;100.00;100441.13;1755102;80;21106;-85
2022/12/10 14:24:30;;;;;;;165.35;59.70;;;;;;;12.85;100.00;100434.75;1750759;80;21046;-86
2022/12/10 14:27:25;;;;;;;157.20;58.78;;;;;;;12.46;100.00;100431.94;1727026;82;21031;-87
2022/12/10 14:29:58;;;;;;;151.78;54.70;;;;;;;12.81;100.00;100435.56;1731663;82;22369;-87
2022/12/10 14:32:31;;;;;;;;;;;;;;;12.85;100.00;100435.27;1730633;81;21049;-86
2022/12/10 14:34:59;;;;;;;60.23;23.05;;;;;;;12.79;100.00;100435.03;1635382;86;20230;-85
2022/12/10 14:37:29;;;;;;;68.80;28.83;;;;;;;13.04;100.00;100439.50;1634736;86;21084;-86
2022/12/10 14:39:56;;;;;;;55.35;20.72;;;;;;;12.88;100.00;100436.06;1654202;86;21011;-85
2022/12/10 14:42:23;;;;;;;46.15;15.40;;;;;;;12.90;100.00;100436.59;1641303;86;22662;-85
2022/12/10 14:44:57;;;;;;;58.00;17.82;;;;;;;13.25;100.00;100436.12;1630435;86;21075;-85
2022/12/10 14:47:23;;;;;;;65.08;20.72;;;;;;;12.73;100.00;100431.54;1630785;87;21047;-85
2022/12/10 14:49:54;;;;;;;51.02;18.85;;;;;;;13.09;100.00;100425.41;1632679;86;21699;-85
2022/12/10 14:52:24;;;;;;;48.92;16.77;;;;;;;13.13;100.00;100424.30;1647477;86;21084;-85
2022/12/10 14:54:51;;;;;;;53.70;17.82;;;;;;;13.08;100.00;100418.36;1599523;89;21818;-84
2022/12/10 15:00:58;;;;;;;40.95;14.83;;;;;;;13.06;100.00;100421.08;1598129;89;21083;-85
2022/12/10 15:03:29;;;;;;;53.92;16.67;;;;;;;13.00;100.00;100414.91;1603049;89;21148;-85
2022/12/10 15:06:03;;;;;;;61.63;19.35;;;;;;;13.13;100.00;100418.88;1550302;90;21108;-84
2022/12/10 15:08:30;;;;;;;54.13;17.62;;;;;;;13.01;100.00;100413.81;1557189;91;22664;-84
2022/12/10 15:10:59;;;;;;;48.50;15.85;;;;;;;13.11;100.00;100412.38;1560957;91;21098;-84
2022/12/10 15:13:33;;;;;;;48.68;15.20;;;;;;;13.29;100.00;100397.95;1542556;91;21235;-84
2022/12/10 15:16:00;;;;;;;41.02;13.30;;;;;;;13.15;100.00;100402.63;1522180;92;21065;-85
2022/12/10 15:18:35;;;;;;;39.92;13.70;;;;;;;13.28;100.00;100397.14;1524636;91;22281;-84
2022/12/10 15:21:23;;;;;;;47.17;13.40;;;;;;;13.31;100.00;100397.94;1523031;92;21946;-84
2022/12/10 15:23:50;;;;;;;31.12;9.78;;;;;;;13.25;100.00;100384.70;1509242;94;21181;-84
2022/12/10 15:26:26;;;;;;;47.40;13.85;;;;;;;13.43;100.00;100388.09;1513531;94;21405;-84
2022/12/10 15:29:17;;;;;;;36.23;11.55;;;;;;;13.40;100.00;100380.54;1505716;94;22145;-85
2022/12/10 15:31:43;;;;;;;38.65;12.85;;;;;;;13.44;100.00;100376.72;1527199;91;21112;-85
2022/12/10 15:34:13;;;;;;;34.20;10.23;;;;;;;13.35;100.00;100369.23;1531471;91;21714;-84
2022/12/10 15:36:44;;;;;;;29.95;9.78;;;;;;;12.98;100.00;100371.09;1540917;91;21556;-83
2022/12/10 15:39:21;;;;;;;30.62;9.28;;;;;;;13.11;100.00;100360.98;1540028;91;21099;-85
2022/12/10 15:41:55;;;;;;;22.30;7.50;;;;;;;13.38;100.00;100347.01;1551712;90;21763;-84
2022/12/10 15:44:42;;;;;;;37.30;11.55;;;;;;;13.35;100.00;100346.22;1513701;92;21185;-84
2022/12/10 15:47:20;;;;;;;28.95;8.63;;;;;;;13.38;100.00;100347.53;1514287;93;21811;-85
2022/12/10 15:49:49;;;;;;;18.35;6.65;;;;;;;13.43;100.00;100347.48;1500191;93;21824;-84
2022/12/10 15:52:30;;;;;;;18.25;6.80;;;;;;;13.38;100.00;100343.47;1510722;93;21083;-84
2022/12/10 15:54:57;;;;;;;21.68;7.42;;;;;;;13.27;100.00;100348.73;1503445;93;21417;-85
2022/12/10 15:57:37;;;;;;;20.32;6.92;;;;;;;12.94;100.00;100350.57;1504129;92;21103;-84
2022/12/10 16:00:09;;;;;;;20.92;7.78;;;;;;;12.90;100.00;100347.34;1531019;92;21747;-84
2022/12/10 16:02:58;;;;;;;25.48;7.53;;;;;;;13.16;100.00;100359.59;1566895;87;21092;-85
2022/12/10 16:05:37;;;;;;;20.00;7.42;;;;;;;13.17;100.00;100364.45;1627787;87;21492;-86
2022/12/10 16:08:28;;;;;;;17.57;6.60;;;;;;;13.21;100.00;100362.81;1597625;89;21070;-84
2022/12/10 16:10:59;;;;;;;16.12;5.92;;;;;;;12.94;100.00;100365.45;1602679;89;21177;-85